Latest Coastal Weather Observations for Ngayawili (Elcho Island)

IDD60701

Issued at 12:21 pm CST Thursday 25 August 2016 (issued every 10 minutes, with the page automatically refreshed every 10 minutes)

About coastal observations | Map of coastal stations | Coastal observations for NT | Marine services | Other Formats
Station Details ID: 014517 Name: NGAYAWILI Lat: -12.00 Lon: 135.57 Height: 8.1 m
Data from the previous 72 hours. | See also: Recent months at Ngayawili (Elcho Island)
Date/Time
CST
Temp
°C
Wind Pressure Rain since
9am
mm
Weather Cloud Vis
km
Sea
Height
m
Swell
Dir  Spd
kts
Gust
kts
hPa Trend Height
m
Period
s
Dir
25/12:00pm 28.9 NNW 8 9 1011.1 - 0.0 - - - - - - -
25/11:30am 28.9 NNW 8 9 1011.4 - 0.0 - - - - - - -
25/11:00am 28.8 N 7 8 1011.9 - 0.0 - - - - - - -
25/10:30am 28.6 N 8 9 1012.1 - 0.0 - - - - - - -
25/10:00am 28.2 N 8 9 1012.5 - 0.0 - - - - - - -
25/09:30am 27.0 N 7 8 1012.6 - 0.0 - - - - - - -
25/09:00am 26.6 N 5 7 1012.4 - 0.0 - - - - - - -
25/08:30am 26.4 N 5 7 1012.1 - 0.0 - - - - - - -
25/08:00am 24.9 E 2 4 1011.8 - 0.0 - - - - - - -
25/07:30am 23.3 ESE 4 5 1011.4 - 0.0 - - - - - - -
25/07:00am 21.0 ENE 1 4 1011.2 - 0.0 - - - - - - -
25/06:30am 21.0 SE 1 3 1010.8 - 0.0 - - - - - - -
25/06:00am 21.6 SE 3 4 1010.5 - 0.0 - - - - - - -
25/05:30am 21.5 SE 4 4 1010.3 - 0.0 - - - - - - -
25/05:00am 22.3 SE 3 4 1010.2 - 0.0 - - - - - - -
25/04:30am 22.3 ESE 4 5 1010.1 - 0.0 - - - - - - -
25/04:00am 22.2 ESE 2 5 1010.1 - 0.0 - - - - - - -
25/03:30am 22.5 ESE 3 4 1010.2 - 0.0 - - - - - - -
25/03:00am 23.0 NNE 1 3 1010.2 - 0.0 - - - - - - -
25/02:30am 23.4 ENE 1 3 1010.1 - 0.0 - - - - - - -
25/02:00am 23.5 NNE 5 6 1010.0 - 0.0 - - - - - - -
25/01:30am 23.6 ENE 3 4 1010.5 - 0.0 - - - - - - -
25/01:00am 25.6 N 5 7 1010.7 - 0.0 - - - - - - -
25/12:30am 25.8 N 7 8 1010.8 - 0.0 - - - - - - -
25/12:00am 25.6 NNE 7 8 1010.9 - 0.0 - - - - - - -
 
Date/Time
CST
Temp
°C
Wind Pressure Rain since
9am
mm
Weather Cloud Vis
km
Sea
Height
m
Swell
Dir  Spd
kts
Gust
kts
hPa Trend Height
m
Period
s
Dir
24/11:30pm 25.5 NNE 6 8 1010.8 - 0.0 - - - - - - -
24/11:00pm 25.5 NNE 7 9 1010.6 - 0.0 - - - - - - -
24/10:30pm 25.6 NNE 8 11 1010.6 - 0.0 - - - - - - -
24/10:00pm 25.7 N 11 13 1010.2 - 0.0 - - - - - - -
24/09:30pm 25.8 N 11 13 1010.0 - 0.0 - - - - - - -
24/09:00pm 25.7 N 12 14 1009.7 - 0.0 - - - - - - -
24/08:30pm 25.7 N 12 13 1009.6 - 0.0 - - - - - - -
24/08:00pm 25.9 N 12 14 1009.3 - 0.0 - - - - - - -
24/07:30pm 25.8 N 13 15 1008.9 - 0.0 - - - - - - -
24/07:00pm 25.9 N 13 15 1008.5 - 0.0 - - - - - - -
24/06:30pm 26.1 N 12 14 1008.2 - 0.0 - - - - - - -
24/06:00pm 26.7 N 11 13 1008.1 - 0.0 - - - - - - -
24/05:30pm 27.2 N 11 13 1007.9 - 0.0 - - - - - - -
24/05:00pm 27.5 N 11 13 1007.7 - 0.0 - - - - - - -
24/04:30pm 27.9 N 11 12 1007.9 - 0.0 - - - - - - -
24/04:00pm 28.2 N 11 12 1008.0 - 0.0 - - - - - - -
24/03:30pm 28.7 N 11 13 1008.2 - 0.0 - - - - - - -
24/03:00pm 28.7 N 10 11 1008.3 - 0.0 - - - - - - -
24/02:30pm 28.5 NNW 10 11 1008.7 - 0.0 - - - - - - -
24/02:00pm 29.3 NNW 10 11 1009.1 - 0.0 - - - - - - -
24/01:30pm 28.7 NW 9 10 1009.2 - 0.0 - - - - - - -
24/01:00pm 28.6 NW 9 10 1009.7 - 0.0 - - - - - - -
24/12:30pm 28.5 NW 8 9 1010.2 - 0.0 - - - - - - -
24/12:00pm 28.7 WNW 8 9 1010.7 - 0.0 - - - - - - -
24/11:30am 28.6 W 7 9 1011.2 - 0.0 - - - - - - -
24/11:00am 28.4 W 7 9 1011.5 - 0.0 - - - - - - -
24/10:30am 27.6 WSW 8 9 1011.8 - 0.0 - - - - - - -
24/10:00am 27.4 WSW 8 10 1012.2 - 0.0 - - - - - - -
24/09:30am 27.3 NW 7 8 1012.4 - 0.0 - - - - - - -
24/09:00am 27.3 NNW 7 9 1012.5 - 0.0 - - - - - - -
24/08:30am 27.1 NW 7 9 1012.3 - 0.0 - - - - - - -
24/08:00am 26.2 NW 7 8 1012.0 - 0.0 - - - - - - -
24/07:30am 25.7 NW 9 10 1011.6 - 0.0 - - - - - - -
24/07:00am 25.2 NW 9 11 1011.1 - 0.0 - - - - - - -
24/06:30am 25.2 NW 9 11 1010.6 - 0.0 - - - - - - -
24/06:00am 25.3 WNW 9 11 1010.3 - 0.0 - - - - - - -
24/05:30am 25.3 NW 11 12 1010.0 - 0.0 - - - - - - -
24/05:00am 25.4 NW 10 13 1009.9 - 0.0 - - - - - - -
24/04:30am 25.5 NW 11 13 1009.6 - 0.0 - - - - - - -
24/04:00am 25.3 NNW 11 13 1009.4 - 0.0 - - - - - - -
24/03:30am 25.5 NW 11 12 1009.4 - 0.0 - - - - - - -
24/03:00am 25.5 NW 11 12 1009.4 - 0.0 - - - - - - -
24/02:30am 25.4 NNW 9 11 1009.4 - 0.0 - - - - - - -
24/02:00am 25.5 N 10 12 1009.4 - 0.0 - - - - - - -
24/01:30am 25.5 N 11 13 1009.4 - 0.0 - - - - - - -
24/01:00am 25.6 N 10 13 1009.5 - 0.0 - - - - - - -
24/12:30am 25.8 N 9 11 1009.8 - 0.0 - - - - - - -
24/12:00am 25.5 N 11 13 1009.7 - 0.0 - - - - - - -
 
Date/Time
CST
Temp
°C
Wind Pressure Rain since
9am
mm
Weather Cloud Vis
km
Sea
Height
m
Swell
Dir  Spd
kts
Gust
kts
hPa Trend Height
m
Period
s
Dir
23/11:30pm 25.5 N 10 12 1009.8 - 0.0 - - - - - - -
23/11:00pm 25.6 N 10 12 1009.8 - 0.0 - - - - - - -
23/10:30pm 25.6 N 10 11 1009.8 - 0.0 - - - - - - -
23/10:00pm 25.3 N 9 10 1009.6 - 0.0 - - - - - - -
23/09:30pm 25.4 N 9 11 1009.7 - 0.0 - - - - - - -
23/09:00pm 25.7 N 9 11 1009.7 - 0.0 - - - - - - -
23/08:30pm 25.7 N 9 11 1009.6 - 0.0 - - - - - - -
23/08:00pm 25.8 N 10 11 1009.4 - 0.0 - - - - - - -
23/07:30pm 25.8 N 9 11 1008.9 - 0.0 - - - - - - -
23/07:00pm 25.9 N 8 10 1008.6 - 0.0 - - - - - - -
23/06:30pm 26.0 N 7 8 1008.2 - 0.0 - - - - - - -
23/06:00pm 26.7 N 6 8 1007.9 - 0.0 - - - - - - -
23/05:30pm 27.3 NNW 8 9 1007.6 - 0.0 - - - - - - -
23/05:00pm 27.7 NNW 7 9 1007.5 - 0.0 - - - - - - -
23/04:30pm 28.3 NNW 8 9 1007.5 - 0.0 - - - - - - -
23/04:00pm 28.2 NNW 9 11 1007.5 - 0.0 - - - - - - -
23/03:30pm 28.4 NNW 9 11 1007.5 - 0.0 - - - - - - -
23/03:00pm 28.2 NNW 9 11 1007.7 - 0.0 - - - - - - -
23/02:30pm 29.0 NNW 9 11 1008.1 - 0.0 - - - - - - -
23/02:00pm 28.5 NW 8 10 1008.3 - 0.0 - - - - - - -
23/01:30pm 29.0 NNW 8 9 1008.8 - 0.0 - - - - - - -
23/01:00pm 29.1 NNW 8 10 1009.3 - 0.0 - - - - - - -
23/12:30pm 28.9 NNW 8 10 1009.7 - 0.0 - - - - - - -
23/12:00pm 28.5 NNW 9 10 1010.0 - 0.0 - - - - - - -
23/11:30am 28.4 NNW 8 9 1010.6 - 0.0 - - - - - - -
23/11:00am 27.9 NNW 7 8 1011.2 - 0.0 - - - - - - -
23/10:30am 27.5 N 7 8 1011.6 - 0.0 - - - - - - -
23/10:00am 27.8 N 8 9 1011.7 - 0.0 - - - - - - -
23/09:30am 27.5 N 9 11 1011.6 - 0.0 - - - - - - -
23/09:00am 26.0 N 9 10 1011.5 - 0.0 - - - - - - -
23/08:30am 26.2 N 9 11 1011.2 - 0.0 - - - - - - -
23/08:00am 25.4 N 9 11 1011.0 - 0.0 - - - - - - -
23/07:30am 24.8 N 8 10 1010.6 - 0.0 - - - - - - -
23/07:00am 24.2 N 7 9 1010.3 - 0.0 - - - - - - -
23/06:30am 23.3 NNE 7 9 1010.1 - 0.0 - - - - - - -
23/06:00am 23.2 NNE 7 9 1009.9 - 0.0 - - - - - - -
23/05:30am 22.0 NNE 5 7 1009.6 - 0.0 - - - - - - -
23/05:00am 21.9 NE 6 6 1009.3 - 0.0 - - - - - - -
23/04:30am 21.9 NE 5 6 1009.4 - 0.0 - - - - - - -
23/04:00am 21.6 ENE 4 5 1009.3 - 0.0 - - - - - - -
23/03:30am 22.6 ENE 4 6 1009.3 - 0.0 - - - - - - -
23/03:00am 22.7 ENE 4 5 1009.5 - 0.0 - - - - - - -
23/02:30am 22.7 E 4 5 1009.5 - 0.0 - - - - - - -
23/02:00am 23.3 E 4 5 1009.7 - 0.0 - - - - - - -
23/01:30am 23.4 E 4 5 1009.7 - 0.0 - - - - - - -
23/01:00am 24.4 NE 5 6 1009.9 - 0.0 - - - - - - -
23/12:30am 24.8 NE 6 8 1009.9 - 0.0 - - - - - - -
23/12:00am 25.0 NE 6 11 1010.1 - 0.0 - - - - - - -
 
Date/Time
CST
Temp
°C
Wind Pressure Rain since
9am
mm
Weather Cloud Vis
km
Sea
Height
m
Swell
Dir  Spd
kts
Gust
kts
hPa Trend Height
m
Period
s
Dir
22/11:30pm 25.2 NE 7 11 1010.1 - 0.0 - - - - - - -
22/11:00pm 25.2 NE 7 10 1010.2 - 0.0 - - - - - - -
22/10:30pm 25.3 NE 8 13 1010.2 - 0.0 - - - - - - -
22/10:00pm 25.5 NNE 9 13 1010.3 - 0.0 - - - - - - -
22/09:30pm 25.5 NNE 8 12 1010.3 - 0.0 - - - - - - -
22/09:00pm 25.4 NNE 8 11 1010.2 - 0.0 - - - - - - -
22/08:30pm 25.5 NNE 10 13 1009.9 - 0.0 - - - - - - -
22/08:00pm 25.5 NNE 9 12 1009.2 - 0.0 - - - - - - -
22/07:30pm 25.6 NNE 9 12 1008.9 - 0.0 - - - - - - -
22/07:00pm 25.7 NNE 10 13 1008.5 - 0.0 - - - - - - -
22/06:30pm 25.8 NNE 11 13 1008.2 - 0.0 - - - - - - -
22/06:00pm 26.3 N 11 14 1007.8 - 0.0 - - - - - - -
22/05:30pm 27.0 N 12 14 1007.6 - 0.0 - - - - - - -
22/05:00pm 27.6 N 13 15 1007.3 - 0.0 - - - - - - -
22/04:30pm 28.1 N 13 15 1007.2 - 0.0 - - - - - - -
22/04:00pm 28.4 N 13 15 1007.1 - 0.0 - - - - - - -
22/03:30pm 28.7 N 12 14 1007.2 - 0.0 - - - - - - -
22/03:00pm 28.3 N 13 15 1007.3 - 0.0 - - - - - - -
22/02:30pm 28.7 N 14 15 1007.6 - 0.0 - - - - - - -
22/02:00pm 28.3 N 13 15 1008.0 - 0.0 - - - - - - -
22/01:30pm 28.3 N 14 15 1008.3 - 0.0 - - - - - - -
22/01:00pm 28.4 N 13 15 1008.7 - 0.0 - - - - - - -
22/12:30pm 28.3 N 12 13 1009.2 - 0.0 - - - - - - -

Other Formats:

Comma delimited format used in spreadsheet applications
http://www.bom.gov.au/fwo/IDD60701/IDD60701.95146.axf

JavaScript Object Notation format (JSON) in row-major order
http://www.bom.gov.au/fwo/IDD60701/IDD60701.95146.json